Time;durP1;ratioP1;P1;durP2;ratioP2;P2;SDS_P1;SDS_P2;PMS_P1;PMS_P2;Temp;Humidity;BMP_temperature;BMP_pressure;BME280_temperature;BME280_humidity;BME280_pressure;Samples;Min_cycle;Max_cycle;Signal;HPM_P1;HPM_P2
2022/12/24 00:01:21;;;;;;;1999.90;882.23;;;10.30;99.90;;;;;;5049862;28;20275;-52
2022/12/24 00:03:50;;;;;;;1999.90;313.40;;;10.20;99.90;;;;;;5049159;28;20225;-52
2022/12/24 00:06:20;;;;;;;1816.43;246.93;;;10.20;99.90;;;;;;5045981;28;20328;-52
2022/12/24 00:08:50;;;;;;;1999.90;445.27;;;10.30;99.90;;;;;;5049754;28;20218;-51
2022/12/24 00:11:19;;;;;;;1362.57;249.27;;;10.10;99.90;;;;;;5044678;28;20256;-52
2022/12/24 00:13:48;;;;;;;1999.90;511.40;;;10.10;99.90;;;;;;5048208;28;20253;-51
2022/12/24 00:16:16;;;;;;;1999.90;467.87;;;10.00;99.90;;;;;;5049428;28;20321;-50
2022/12/24 00:18:44;;;;;;;1999.90;618.70;;;10.00;99.90;;;;;;5048923;28;20206;-52
2022/12/24 00:21:14;;;;;;;1999.90;446.80;;;10.10;99.90;;;;;;5048672;28;20291;-52
2022/12/24 00:23:43;;;;;;;1999.90;571.80;;;10.10;99.90;;;;;;5048156;28;20268;-52
2022/12/24 00:26:13;;;;;;;1999.90;648.80;;;10.00;99.90;;;;;;5045526;28;20290;-51
2022/12/24 00:28:42;;;;;;;1607.17;239.30;;;10.10;99.90;;;;;;5048566;28;20197;-51
2022/12/24 00:31:12;;;;;;;1999.90;395.87;;;10.10;99.90;;;;;;5048894;28;20201;-52
2022/12/24 00:33:41;;;;;;;1862.97;342.63;;;10.10;99.90;;;;;;5047584;28;20225;-52
2022/12/24 00:36:09;;;;;;;1999.90;823.73;;;10.10;99.90;;;;;;5048387;28;20206;-51
2022/12/24 00:38:38;;;;;;;1999.90;764.90;;;10.00;99.90;;;;;;5048988;28;20213;-52
2022/12/24 00:41:23;;;;;;;1999.90;338.33;;;10.10;99.90;;;;;;5048239;28;20261;-51
2022/12/24 00:43:55;;;;;;;1671.17;227.03;;;10.10;99.90;;;;;;5045839;28;20224;-51
2022/12/24 00:46:23;;;;;;;1671.33;286.03;;;10.10;99.90;;;;;;5046188;28;20244;-52
2022/12/24 00:48:52;;;;;;;605.20;112.17;;;10.10;99.90;;;;;;5048140;28;20240;-51
2022/12/24 00:51:20;;;;;;;1267.37;235.43;;;10.10;99.90;;;;;;5047930;28;20296;-51
2022/12/24 00:53:49;;;;;;;1999.90;458.10;;;10.10;99.90;;;;;;5047596;28;21006;-51
2022/12/24 00:56:18;;;;;;;1116.97;208.67;;;10.10;99.90;;;;;;5047892;28;20205;-53
2022/12/24 00:58:46;;;;;;;1285.23;223.73;;;10.10;99.90;;;;;;5048873;28;20239;-51
2022/12/24 01:01:16;;;;;;;1999.90;427.90;;;10.10;99.90;;;;;;5047717;28;20558;-52
2022/12/24 01:03:45;;;;;;;1543.07;271.17;;;10.10;99.90;;;;;;5047751;28;20224;-52
2022/12/24 01:06:14;;;;;;;1999.90;384.07;;;10.00;99.90;;;;;;5047194;28;20202;-51
2022/12/24 01:08:42;;;;;;;1999.90;635.03;;;10.00;99.90;;;;;;5047287;28;20223;-52
2022/12/24 01:11:12;;;;;;;1575.87;358.57;;;10.00;99.90;;;;;;5047665;28;20213;-52
2022/12/24 01:13:40;;;;;;;1999.90;527.53;;;10.10;99.90;;;;;;5047706;28;20233;-52
2022/12/24 01:16:17;;;;;;;1999.90;375.37;;;10.00;99.90;;;;;;5048096;28;20617;-52
2022/12/24 01:18:45;;;;;;;1999.90;565.70;;;10.00;99.90;;;;;;5048267;28;20201;-52
2022/12/24 01:21:14;;;;;;;1958.33;327.50;;;10.00;99.90;;;;;;5047408;28;20198;-52
2022/12/24 01:23:42;;;;;;;1487.30;285.20;;;10.00;99.90;;;;;;5047783;28;20229;-52
2022/12/24 01:26:12;;;;;;;1999.90;383.03;;;10.00;99.90;;;;;;5047510;28;20205;-51
2022/12/24 01:28:40;;;;;;;1999.90;397.27;;;10.00;99.90;;;;;;5045364;28;20205;-51
2022/12/24 01:31:12;;;;;;;1299.53;241.00;;;10.00;99.90;;;;;;5046849;28;20213;-52
2022/12/24 01:33:42;;;;;;;1999.90;710.80;;;10.00;99.90;;;;;;5041240;28;20233;-51
2022/12/24 01:36:10;;;;;;;1997.77;394.40;;;10.00;99.90;;;;;;5047340;28;20913;-50
2022/12/24 01:38:39;;;;;;;1280.63;230.40;;;10.00;99.90;;;;;;5047273;28;20216;-50
2022/12/24 01:43:53;;;;;;;1999.90;693.07;;;9.90;99.90;;;;;;5044726;28;20225;-52
2022/12/24 01:46:26;;;;;;;1999.90;719.30;;;10.00;99.90;;;;;;5047610;28;20271;-51
2022/12/24 01:48:57;;;;;;;1999.90;539.67;;;10.00;99.90;;;;;;5047935;28;20201;-52
2022/12/24 01:51:30;;;;;;;1924.93;386.00;;;9.90;99.90;;;;;;5047862;28;20233;-51
2022/12/24 01:54:03;;;;;;;1999.90;757.83;;;9.90;99.90;;;;;;5048231;28;20229;-51
2022/12/24 01:56:32;;;;;;;977.13;206.93;;;10.00;99.90;;;;;;5047457;28;20240;-52
2022/12/24 01:59:04;;;;;;;1620.67;352.03;;;10.00;99.90;;;;;;5047878;28;20233;-50
2022/12/24 02:01:32;;;;;;;1999.90;444.60;;;10.00;99.90;;;;;;5044413;28;20241;-52
2022/12/24 02:04:04;;;;;;;1588.23;261.57;;;10.00;99.90;;;;;;5042417;28;20229;-50
2022/12/24 02:06:33;;;;;;;1999.90;500.80;;;10.00;99.90;;;;;;5045834;28;20737;-51
2022/12/24 02:09:01;;;;;;;692.37;159.80;;;10.00;99.90;;;;;;5047210;28;20274;-52
2022/12/24 02:11:30;;;;;;;1984.43;387.70;;;10.00;99.90;;;;;;5047291;28;20259;-51
2022/12/24 02:14:01;;;;;;;1999.90;700.23;;;9.90;99.90;;;;;;5047357;28;20676;-52
2022/12/24 02:16:38;;;;;;;1999.90;607.80;;;9.80;99.90;;;;;;5046682;28;20206;-51
2022/12/24 02:19:27;;;;;;;583.07;153.90;;;9.80;99.90;;;;;;5044751;28;20585;-52
2022/12/24 02:22:01;;;;;;;1999.90;398.73;;;9.80;99.90;;;;;;5042311;28;20313;-51
2022/12/24 02:25:02;;;;;;;1547.87;325.00;;;9.80;99.90;;;;;;5047113;28;20763;-52
2022/12/24 02:27:45;;;;;;;635.03;173.17;;;9.60;99.90;;;;;;5042026;28;20580;-52
2022/12/24 02:30:19;;;;;;;807.77;177.87;;;9.50;99.90;;;;;;5045386;28;20222;-51
2022/12/24 02:33:20;;;;;;;1082.13;218.23;;;9.50;99.90;;;;;;5046793;28;20299;-52
2022/12/24 02:35:53;;;;;;;895.17;204.60;;;9.40;99.90;;;;;;5045404;28;20737;-51
2022/12/24 02:38:27;;;;;;;1996.43;407.43;;;9.50;99.90;;;;;;5046755;28;20232;-51
2022/12/24 02:40:58;;;;;;;468.33;92.93;;;9.60;99.90;;;;;;5046474;28;20617;-52
2022/12/24 02:43:32;;;;;;;700.53;179.77;;;9.60;99.90;;;;;;5046905;28;20260;-52
2022/12/24 02:46:07;;;;;;;1040.00;237.50;;;9.60;99.90;;;;;;5046076;28;20260;-52
2022/12/24 02:48:37;;;;;;;1123.27;223.87;;;9.60;99.90;;;;;;5045631;28;20235;-52
2022/12/24 02:51:08;;;;;;;1995.00;466.53;;;9.60;99.90;;;;;;5046893;28;20202;-51
2022/12/24 02:53:37;;;;;;;1238.97;286.57;;;9.60;99.90;;;;;;5046688;28;20291;-52
2022/12/24 02:56:25;;;;;;;1061.60;229.93;;;9.70;99.90;;;;;;5047455;28;20233;-51
2022/12/24 02:59:08;;;;;;;1224.23;249.20;;;9.60;99.90;;;;;;5049654;28;20629;-52
2022/12/24 03:01:46;;;;;;;269.53;74.60;;;9.60;99.90;;;;;;5048440;28;20197;-52
2022/12/24 03:04:38;;;;;;;119.13;48.00;;;9.60;99.90;;;;;;5047578;28;20667;-51
2022/12/24 03:07:13;;;;;;;1999.90;541.47;;;9.60;99.90;;;;;;5050918;28;20201;-51
2022/12/24 03:09:56;;;;;;;674.73;101.67;;;9.70;99.90;;;;;;5050510;28;20251;-51
2022/12/24 03:12:32;;;;;;;1284.73;199.20;;;9.70;99.90;;;;;;5050417;28;20236;-52
2022/12/24 03:15:01;;;;;;;718.63;180.43;;;9.60;99.90;;;;;;5050417;28;20769;-51
2022/12/24 03:17:36;;;;;;;391.63;86.90;;;9.50;99.90;;;;;;5050720;28;20635;-51
2022/12/24 03:20:06;;;;;;;335.10;66.27;;;9.50;99.90;;;;;;5049264;28;20744;-51
2022/12/24 03:22:35;;;;;;;706.70;152.43;;;9.50;99.90;;;;;;5049329;28;20299;-52
2022/12/24 03:25:04;;;;;;;1773.93;288.13;;;9.50;99.90;;;;;;5047239;28;20288;-52
2022/12/24 03:27:34;;;;;;;1999.90;383.37;;;9.40;99.90;;;;;;5049119;28;20213;-51
2022/12/24 03:30:04;;;;;;;91.20;30.67;;;9.40;99.90;;;;;;5049572;28;20742;-51
2022/12/24 03:32:34;;;;;;;236.20;70.53;;;9.40;99.90;;;;;;5049548;28;20257;-51
2022/12/24 03:35:02;;;;;;;1141.50;172.77;;;9.30;99.90;;;;;;5047375;28;20222;-51
2022/12/24 03:37:30;;;;;;;84.87;36.27;;;9.30;99.90;;;;;;5047764;28;20238;-52
2022/12/24 03:39:58;;;;;;;221.27;62.93;;;9.30;99.90;;;;;;5049715;28;20251;-51
2022/12/24 03:42:26;;;;;;;830.30;170.00;;;9.30;99.90;;;;;;5048159;28;20233;-51
2022/12/24 03:44:54;;;;;;;1555.07;252.27;;;9.30;99.90;;;;;;5049482;28;20455;-51
2022/12/24 03:47:22;;;;;;;557.37;102.37;;;9.20;99.90;;;;;;5049964;28;20786;-52
2022/12/24 03:49:52;;;;;;;710.80;134.63;;;9.20;99.90;;;;;;5049643;28;20236;-52
2022/12/24 03:52:20;;;;;;;1999.90;527.23;;;9.10;99.90;;;;;;5049499;28;20271;-51
2022/12/24 03:54:48;;;;;;;982.90;160.63;;;9.10;99.90;;;;;;5049067;28;20225;-51
2022/12/24 03:57:16;;;;;;;136.03;41.97;;;9.00;99.90;;;;;;5049312;28;20258;-51
2022/12/24 03:59:44;;;;;;;507.07;88.20;;;9.00;99.90;;;;;;5048633;28;20292;-52
2022/12/24 04:02:12;;;;;;;396.00;87.43;;;8.90;99.90;;;;;;5049502;28;20230;-51
2022/12/24 04:04:41;;;;;;;422.97;74.83;;;8.90;99.90;;;;;;5049191;28;20211;-51
2022/12/24 04:07:10;;;;;;;149.43;61.67;;;8.90;99.90;;;;;;5048720;28;20198;-51
2022/12/24 04:09:39;;;;;;;611.17;127.57;;;8.90;99.90;;;;;;5048720;28;20670;-51
2022/12/24 04:12:08;;;;;;;389.93;80.10;;;8.90;99.90;;;;;;5048679;28;20213;-51
2022/12/24 04:14:36;;;;;;;414.80;91.40;;;8.90;99.90;;;;;;5049528;28;20257;-52
2022/12/24 04:17:04;;;;;;;599.87;123.50;;;8.90;99.90;;;;;;5049675;28;20297;-51
2022/12/24 04:19:32;;;;;;;742.23;148.90;;;8.90;99.90;;;;;;5049533;28;20210;-51
2022/12/24 04:22:00;;;;;;;799.33;142.53;;;8.90;99.90;;;;;;5044806;28;20324;-52
2022/12/24 04:24:29;;;;;;;142.33;39.83;;;9.00;99.90;;;;;;5049053;28;20225;-51
2022/12/24 04:26:57;;;;;;;54.33;24.40;;;9.00;99.90;;;;;;5048653;28;20209;-52
2022/12/24 04:29:26;;;;;;;100.00;34.20;;;9.00;99.90;;;;;;5049438;28;20294;-50
2022/12/24 04:31:54;;;;;;;412.73;94.70;;;9.00;99.90;;;;;;5045588;28;20246;-51
2022/12/24 04:34:22;;;;;;;57.27;27.37;;;9.00;99.90;;;;;;5048769;28;20241;-51
2022/12/24 04:36:50;;;;;;;119.77;39.20;;;9.00;99.90;;;;;;5045203;28;20229;-50
2022/12/24 04:39:18;;;;;;;473.80;116.87;;;9.00;99.90;;;;;;5049563;28;20227;-51
2022/12/24 04:41:48;;;;;;;697.60;122.20;;;9.00;99.90;;;;;;5049077;28;20800;-52
2022/12/24 04:44:16;;;;;;;189.57;55.57;;;9.00;99.90;;;;;;5049220;28;20225;-51
2022/12/24 04:46:44;;;;;;;54.10;26.73;;;9.10;99.90;;;;;;5048972;28;20202;-51
2022/12/24 04:49:12;;;;;;;117.00;41.07;;;9.10;99.90;;;;;;5048725;28;20297;-51
2022/12/24 04:51:40;;;;;;;321.07;133.83;;;9.10;99.90;;;;;;5048471;28;20306;-51
2022/12/24 04:54:08;;;;;;;212.33;56.30;;;9.10;99.90;;;;;;5049067;28;20221;-52
2022/12/24 04:56:36;;;;;;;350.47;86.03;;;9.00;99.90;;;;;;5048605;28;20262;-51
2022/12/24 04:59:05;;;;;;;101.73;28.97;;;9.00;99.90;;;;;;5048720;28;20202;-51
2022/12/24 05:01:34;;;;;;;250.07;66.57;;;9.00;99.90;;;;;;5049194;28;20251;-50
2022/12/24 05:04:02;;;;;;;250.33;53.20;;;9.00;99.90;;;;;;5049669;28;20308;-51
2022/12/24 05:06:32;;;;;;;124.13;44.70;;;9.00;99.90;;;;;;5049803;28;20199;-52
2022/12/24 05:09:00;;;;;;;1190.17;224.67;;;9.10;99.90;;;;;;5035483;28;20250;-52
2022/12/24 05:11:30;;;;;;;54.90;25.53;;;9.10;99.90;;;;;;5036451;28;20673;-52
2022/12/24 05:13:58;;;;;;;113.73;39.20;;;9.10;99.90;;;;;;5034889;28;20273;-51
2022/12/24 05:16:27;;;;;;;213.43;70.93;;;9.10;99.90;;;;;;5038786;28;20230;-52
2022/12/24 05:18:56;;;;;;;46.63;24.07;;;9.10;99.90;;;;;;5035370;28;20475;-52
2022/12/24 05:21:26;;;;;;;282.50;68.97;;;9.10;99.90;;;;;;5035734;28;20236;-52
2022/12/24 05:26:44;;;;;;;110.37;38.13;;;9.10;99.90;;;;;;5034810;28;20243;-51
2022/12/24 05:29:12;;;;;;;575.80;127.37;;;9.00;99.90;;;;;;5031665;28;20224;-51
2022/12/24 05:31:43;;;;;;;266.27;97.97;;;8.90;99.90;;;;;;5031847;28;20233;-52
2022/12/24 05:34:13;;;;;;;390.30;112.53;;;9.00;99.90;;;;;;5033148;28;20696;-52
2022/12/24 05:36:41;;;;;;;156.00;39.80;;;8.90;99.90;;;;;;5031411;28;20314;-51
2022/12/24 05:39:13;;;;;;;785.40;202.10;;;9.00;99.90;;;;;;5032684;28;20210;-52
2022/12/24 05:41:43;;;;;;;102.20;34.73;;;8.90;99.90;;;;;;5031219;28;20686;-52
2022/12/24 05:44:11;;;;;;;163.57;54.03;;;8.90;99.90;;;;;;5032196;28;20222;-51
2022/12/24 05:46:40;;;;;;;302.20;53.30;;;8.90;99.90;;;;;;5027300;28;20282;-52
2022/12/24 05:49:10;;;;;;;526.13;109.33;;;8.90;99.90;;;;;;5028205;28;20660;-52
2022/12/24 05:51:39;;;;;;;72.23;23.37;;;8.90;99.90;;;;;;5036117;28;20293;-51
2022/12/24 05:54:07;;;;;;;287.50;68.93;;;8.90;99.90;;;;;;5045880;28;20277;-52
2022/12/24 05:56:35;;;;;;;61.20;24.23;;;8.90;99.90;;;;;;5047391;28;20249;-52
2022/12/24 05:59:04;;;;;;;332.13;65.87;;;8.90;99.90;;;;;;5046434;28;20207;-51
2022/12/24 06:01:32;;;;;;;67.30;21.13;;;8.90;99.90;;;;;;5048950;28;20292;-51
2022/12/24 06:04:00;;;;;;;395.57;95.93;;;8.90;99.90;;;;;;5048400;28;20655;-51
2022/12/24 06:06:29;;;;;;;58.00;13.60;;;8.90;99.90;;;;;;5048684;28;20663;-52
2022/12/24 06:08:58;;;;;;;288.93;57.57;;;8.90;99.90;;;;;;5048497;28;20267;-51
2022/12/24 06:11:27;;;;;;;130.27;28.67;;;8.90;99.90;;;;;;5048739;28;20217;-51
2022/12/24 06:13:56;;;;;;;495.73;108.13;;;8.90;99.90;;;;;;5048573;28;20321;-51
2022/12/24 06:16:25;;;;;;;503.93;129.03;;;9.00;99.90;;;;;;5048540;28;20326;-52
2022/12/24 06:18:54;;;;;;;164.00;40.03;;;8.90;99.90;;;;;;5042741;28;20218;-51
2022/12/24 06:21:22;;;;;;;514.77;72.00;;;9.00;99.90;;;;;;5034934;28;20263;-51
2022/12/24 06:23:51;;;;;;;442.23;76.73;;;8.90;99.90;;;;;;5048932;28;20227;-51
2022/12/24 06:26:22;;;;;;;66.80;25.47;;;8.90;99.90;;;;;;5048507;28;20252;-52
2022/12/24 06:28:51;;;;;;;261.07;60.17;;;8.80;99.90;;;;;;5048815;28;20198;-51
2022/12/24 06:31:22;;;;;;;198.20;51.27;;;8.80;99.90;;;;;;5048850;28;20217;-51
2022/12/24 06:33:51;;;;;;;208.23;46.60;;;8.90;99.90;;;;;;5046751;28;20223;-51
2022/12/24 06:36:20;;;;;;;423.70;96.30;;;8.90;99.90;;;;;;5049509;28;20223;-50
2022/12/24 06:38:49;;;;;;;246.10;52.27;;;8.90;99.90;;;;;;5043886;28;20288;-52
2022/12/24 06:41:20;;;;;;;24.47;11.13;;;8.90;99.90;;;;;;5050053;28;20280;-50
2022/12/24 06:43:50;;;;;;;25.10;14.73;;;8.90;99.90;;;;;;5041735;28;20275;-52
2022/12/24 06:46:19;;;;;;;103.67;28.10;;;8.90;99.90;;;;;;5049792;28;20214;-52
2022/12/24 06:48:48;;;;;;;506.20;93.77;;;8.90;99.90;;;;;;5049376;28;20214;-52
2022/12/24 06:51:18;;;;;;;177.60;52.70;;;8.90;99.90;;;;;;5039651;28;20251;-52
2022/12/24 06:53:47;;;;;;;197.63;69.23;;;9.00;99.90;;;;;;5052155;28;20309;-51
2022/12/24 06:56:15;;;;;;;287.20;86.10;;;8.90;99.90;;;;;;5051789;28;20224;-52
2022/12/24 06:58:44;;;;;;;203.37;52.17;;;9.00;99.90;;;;;;5052014;28;20235;-52
2022/12/24 07:01:14;;;;;;;272.13;49.60;;;9.00;99.90;;;;;;5051857;28;20284;-52
2022/12/24 07:03:43;;;;;;;116.43;44.23;;;9.00;99.90;;;;;;5052214;28;20226;-52
2022/12/24 07:06:17;;;;;;;30.50;16.17;;;9.00;99.90;;;;;;5051794;28;20286;-51
2022/12/24 07:08:45;;;;;;;199.53;67.83;;;9.00;99.90;;;;;;5051951;28;20213;-52
2022/12/24 07:11:14;;;;;;;340.57;80.03;;;9.00;99.90;;;;;;5050878;28;20213;-53
2022/12/24 07:13:42;;;;;;;663.83;125.80;;;9.00;99.90;;;;;;5051351;28;20268;-52
2022/12/24 07:16:11;;;;;;;32.47;18.93;;;9.00;99.90;;;;;;5051103;28;20326;-52
2022/12/24 07:18:39;;;;;;;41.77;22.93;;;9.00;99.90;;;;;;5051775;28;20210;-53
2022/12/24 07:21:07;;;;;;;175.70;66.00;;;9.00;99.90;;;;;;5049460;28;20204;-53
2022/12/24 07:23:35;;;;;;;1068.90;282.03;;;9.00;99.90;;;;;;5049609;28;20222;-52
2022/12/24 07:26:06;;;;;;;250.60;73.67;;;9.00;99.90;;;;;;5049658;28;20201;-52
2022/12/24 07:28:34;;;;;;;469.63;160.20;;;8.90;99.90;;;;;;5050012;28;20926;-52
2022/12/24 07:31:02;;;;;;;239.17;71.57;;;8.90;99.90;;;;;;5049656;28;20767;-52
2022/12/24 07:33:32;;;;;;;156.30;57.00;;;9.00;99.90;;;;;;5045124;28;20231;-52
2022/12/24 07:36:02;;;;;;;151.03;39.33;;;9.00;99.90;;;;;;5049658;28;20347;-51
2022/12/24 07:38:31;;;;;;;109.40;36.93;;;9.00;99.90;;;;;;5050575;28;20652;-52
2022/12/24 07:41:00;;;;;;;621.47;123.23;;;8.90;99.90;;;;;;5051430;28;20204;-52
2022/12/24 07:43:28;;;;;;;491.00;171.30;;;8.90;99.90;;;;;;5050802;28;20713;-52
2022/12/24 07:45:57;;;;;;;66.03;32.23;;;8.90;99.90;;;;;;5051122;28;20863;-53
2022/12/24 07:48:27;;;;;;;357.43;97.73;;;8.90;99.90;;;;;;5050420;28;20293;-52
2022/12/24 07:50:57;;;;;;;368.77;86.47;;;8.90;99.90;;;;;;5045727;28;20211;-52
2022/12/24 07:53:27;;;;;;;363.10;143.47;;;8.90;99.90;;;;;;5042406;28;20803;-52
2022/12/24 07:55:55;;;;;;;607.30;118.77;;;9.00;99.90;;;;;;5042313;28;20214;-52
2022/12/24 07:58:24;;;;;;;178.77;62.80;;;9.00;99.90;;;;;;5048096;28;20280;-51
2022/12/24 08:00:56;;;;;;;563.47;199.07;;;9.00;99.90;;;;;;5036936;28;20201;-52
2022/12/24 08:03:25;;;;;;;354.63;84.37;;;8.90;99.90;;;;;;5050813;28;20230;-52
2022/12/24 08:05:53;;;;;;;584.13;134.60;;;8.90;99.90;;;;;;5045607;28;20206;-52
2022/12/24 08:08:23;;;;;;;341.43;59.13;;;9.00;99.90;;;;;;5045274;28;20264;-51
2022/12/24 08:10:52;;;;;;;390.03;107.63;;;9.00;99.90;;;;;;5040765;28;20210;-52
2022/12/24 08:13:20;;;;;;;565.70;110.03;;;9.00;99.90;;;;;;5044729;28;20257;-50
2022/12/24 08:15:48;;;;;;;160.33;40.10;;;9.00;99.90;;;;;;5050448;28;20205;-51
2022/12/24 08:18:16;;;;;;;1999.90;377.17;;;9.00;99.90;;;;;;5049919;28;20847;-52
2022/12/24 08:20:44;;;;;;;572.47;104.50;;;9.00;99.90;;;;;;5047444;28;20237;-52
2022/12/24 08:23:13;;;;;;;232.43;62.43;;;8.90;99.90;;;;;;5044153;28;20702;-51
2022/12/24 08:25:44;;;;;;;1999.90;806.05;;;8.90;99.90;;;;;;5049355;28;20489;-52
2022/12/24 08:28:14;;;;;;;1263.17;212.20;;;9.00;99.90;;;;;;5039667;28;20205;-53
2022/12/24 08:30:43;;;;;;;889.13;137.17;;;9.00;99.90;;;;;;5050131;28;20241;-52
2022/12/24 08:33:12;;;;;;;537.33;145.30;;;8.90;99.90;;;;;;5042499;28;20312;-51
2022/12/24 08:35:40;;;;;;;908.43;145.57;;;8.90;99.90;;;;;;5049949;28;20210;-52
2022/12/24 08:38:08;;;;;;;522.10;105.80;;;8.80;99.90;;;;;;5046698;28;20315;-52
2022/12/24 08:40:36;;;;;;;951.43;263.07;;;8.80;99.90;;;;;;5027570;28;20231;-52
2022/12/24 08:43:05;;;;;;;610.23;118.63;;;8.80;99.90;;;;;;5049935;28;20225;-52
2022/12/24 08:45:34;;;;;;;461.77;140.10;;;8.80;99.90;;;;;;5049485;28;20644;-51
2022/12/24 08:48:08;;;;;;;220.67;52.57;;;8.80;99.90;;;;;;5048599;28;20237;-52
2022/12/24 08:50:39;;;;;;;1199.87;176.23;;;8.90;99.90;;;;;;5048775;28;20212;-51
2022/12/24 08:53:08;;;;;;;435.10;85.87;;;8.90;99.90;;;;;;5043225;28;20229;-51
2022/12/24 08:55:36;;;;;;;322.77;73.17;;;8.90;99.90;;;;;;5041020;28;20436;-52
2022/12/24 08:58:06;;;;;;;949.50;173.43;;;8.90;99.90;;;;;;5046254;28;20225;-51
2022/12/24 09:00:34;;;;;;;408.73;94.37;;;8.90;99.90;;;;;;5047358;28;20280;-51
2022/12/24 09:03:03;;;;;;;663.93;118.77;;;8.90;99.90;;;;;;5046654;28;20254;-51
2022/12/24 09:05:31;;;;;;;320.87;104.43;;;8.90;99.90;;;;;;5048346;28;20303;-52
2022/12/24 09:07:59;;;;;;;1318.37;274.33;;;8.90;99.90;;;;;;5046319;28;20677;-51
2022/12/24 09:10:27;;;;;;;708.03;110.97;;;8.90;99.90;;;;;;5048283;28;20292;-51
2022/12/24 09:12:55;;;;;;;949.50;128.20;;;8.90;99.90;;;;;;5049029;28;20265;-51
2022/12/24 09:15:25;;;;;;;1503.30;360.13;;;8.80;99.90;;;;;;5036941;28;20261;-51
2022/12/24 09:17:53;;;;;;;567.80;114.20;;;8.80;99.90;;;;;;5048644;28;20233;-52
2022/12/24 09:20:21;;;;;;;480.37;88.60;;;8.80;99.90;;;;;;5034795;28;20366;-52
2022/12/24 09:22:50;;;;;;;1378.23;317.63;;;8.80;99.90;;;;;;5047180;28;20311;-52
2022/12/24 09:25:18;;;;;;;1163.97;240.33;;;8.80;99.90;;;;;;5037473;28;20301;-51
2022/12/24 09:27:46;;;;;;;878.07;156.30;;;8.80;99.90;;;;;;5039615;28;20263;-53
2022/12/24 09:30:16;;;;;;;408.97;109.23;;;8.90;99.90;;;;;;5043193;28;20205;-51
2022/12/24 09:32:46;;;;;;;270.20;62.63;;;8.90;99.90;;;;;;5044607;28;20230;-52
2022/12/24 09:35:14;;;;;;;904.23;154.33;;;8.90;99.90;;;;;;5041364;28;20235;-51
2022/12/24 09:37:42;;;;;;;532.93;111.07;;;9.00;99.90;;;;;;5045826;28;20206;-52
2022/12/24 09:40:21;;;;;;;1960.53;331.77;;;9.00;99.90;;;;;;5041220;28;20259;-52
2022/12/24 09:42:54;;;;;;;458.50;96.37;;;8.90;99.90;;;;;;5043575;28;20227;-52
2022/12/24 09:45:28;;;;;;;1258.67;155.40;;;8.90;99.90;;;;;;5036822;28;20299;-52
2022/12/24 09:48:02;;;;;;;1373.63;266.73;;;9.00;99.90;;;;;;5039319;28;20201;-51
2022/12/24 09:50:39;;;;;;;1514.47;249.90;;;8.90;99.90;;;;;;5042025;28;20245;-53
2022/12/24 09:53:15;;;;;;;1238.27;261.03;;;9.00;99.90;;;;;;5044539;28;20229;-52
2022/12/24 09:55:47;;;;;;;758.80;123.37;;;8.90;99.90;;;;;;5048170;28;20201;-52
2022/12/24 09:58:22;;;;;;;393.90;93.23;;;9.00;99.90;;;;;;5042910;28;20230;-53
2022/12/24 10:00:51;;;;;;;484.00;93.23;;;9.00;99.90;;;;;;5039963;28;20201;-52
2022/12/24 10:03:20;;;;;;;1238.57;221.87;;;9.00;99.90;;;;;;5035617;28;20267;-52
2022/12/24 10:06:01;;;;;;;107.50;33.93;;;9.10;99.90;;;;;;5045736;28;20237;-53
2022/12/24 10:08:35;;;;;;;622.10;119.70;;;9.20;99.90;;;;;;5039910;28;20240;-52
2022/12/24 10:11:12;;;;;;;587.40;233.53;;;9.30;99.90;;;;;;5042759;28;20233;-51
2022/12/24 10:13:54;;;;;;;268.40;37.07;;;9.40;99.90;;;;;;5045460;28;20239;-52
2022/12/24 10:16:29;;;;;;;514.90;113.60;;;9.40;99.90;;;;;;5039441;28;20296;-51
2022/12/24 10:19:04;;;;;;;261.20;38.80;;;9.40;99.90;;;;;;5049226;28;20232;-51
2022/12/24 10:21:42;;;;;;;406.30;70.97;;;9.50;99.90;;;;;;5041279;28;20286;-52
2022/12/24 10:24:16;;;;;;;339.87;101.63;;;9.50;99.90;;;;;;5041608;28;20999;-52
2022/12/24 10:26:46;;;;;;;1272.97;212.03;;;9.50;99.90;;;;;;5041914;28;20217;-52
2022/12/24 10:29:18;;;;;;;1999.90;350.93;;;9.50;99.90;;;;;;5041230;28;20199;-53
2022/12/24 10:31:57;;;;;;;1999.90;295.43;;;9.50;99.90;;;;;;5043383;28;20276;-53
2022/12/24 10:34:31;;;;;;;1674.10;283.03;;;9.40;99.90;;;;;;5045764;28;20317;-52
2022/12/24 10:37:03;;;;;;;1489.77;248.83;;;9.40;99.90;;;;;;5050142;28;20915;-52
2022/12/24 10:39:31;;;;;;;1499.83;325.43;;;9.50;99.90;;;;;;5045284;28;20229;-52
2022/12/24 10:42:01;;;;;;;582.60;128.63;;;9.50;99.90;;;;;;5051381;28;20277;-53
2022/12/24 10:44:32;;;;;;;573.27;133.00;;;9.60;99.90;;;;;;5047301;28;20229;-52
2022/12/24 10:47:00;;;;;;;1191.23;237.80;;;9.60;99.90;;;;;;5051151;28;20205;-54
2022/12/24 10:49:36;;;;;;;1679.77;398.30;;;9.60;99.90;;;;;;5049865;28;20206;-53
2022/12/24 10:52:09;;;;;;;833.47;201.00;;;9.70;99.90;;;;;;5051077;28;20202;-54
2022/12/24 10:54:38;;;;;;;1629.03;240.83;;;9.70;99.90;;;;;;5051730;28;20208;-52
2022/12/24 10:57:24;;;;;;;517.10;99.30;;;9.60;99.90;;;;;;5049017;28;20303;-53
2022/12/24 10:59:54;;;;;;;982.83;218.17;;;9.70;99.90;;;;;;5046866;28;20275;-52
2022/12/24 11:02:28;;;;;;;1313.63;276.63;;;9.80;99.90;;;;;;5052116;28;20296;-52
2022/12/24 11:04:59;;;;;;;846.07;186.60;;;9.80;99.90;;;;;;5051366;28;20202;-53
2022/12/24 11:07:29;;;;;;;906.43;252.90;;;9.80;99.90;;;;;;5051522;28;20248;-52
2022/12/24 11:09:59;;;;;;;658.47;155.13;;;9.80;99.90;;;;;;5051616;28;20226;-52
2022/12/24 11:12:30;;;;;;;641.93;120.13;;;9.90;99.90;;;;;;5038517;28;20810;-53
2022/12/24 11:15:06;;;;;;;1594.87;229.30;;;9.80;99.90;;;;;;5052052;28;20210;-52
2022/12/24 11:17:34;;;;;;;1018.53;230.33;;;9.80;99.90;;;;;;5051374;28;20240;-53
2022/12/24 11:20:05;;;;;;;1348.07;255.83;;;9.80;99.90;;;;;;5051658;28;20721;-53
2022/12/24 11:22:33;;;;;;;778.90;186.63;;;9.90;99.90;;;;;;5051502;28;20275;-52
2022/12/24 11:25:06;;;;;;;799.30;196.23;;;9.80;99.90;;;;;;5051752;28;20208;-53
2022/12/24 11:27:41;;;;;;;1880.03;237.73;;;9.80;99.90;;;;;;5051540;28;20214;-52
2022/12/24 11:30:26;;;;;;;1811.07;332.97;;;9.80;99.90;;;;;;5050478;28;20579;-53
2022/12/24 11:33:15;;;;;;;479.07;89.87;;;9.80;99.90;;;;;;5050661;28;20819;-52
2022/12/24 11:35:47;;;;;;;826.00;117.27;;;9.70;99.90;;;;;;5043690;28;20197;-52
2022/12/24 11:38:22;;;;;;;533.57;115.70;;;9.70;99.90;;;;;;5050084;28;20216;-53
2022/12/24 11:40:58;;;;;;;968.80;180.03;;;9.70;99.90;;;;;;5045780;28;20299;-53
2022/12/24 11:43:43;;;;;;;566.10;92.53;;;9.90;99.90;;;;;;5049282;28;20791;-56
2022/12/24 11:46:20;;;;;;;1942.73;289.37;;;9.90;99.90;;;;;;5040300;28;20206;-52
2022/12/24 11:49:04;;;;;;;1222.23;248.67;;;9.90;99.90;;;;;;5044423;28;20213;-53
2022/12/24 11:51:37;;;;;;;886.87;297.17;;;10.00;99.90;;;;;;5048006;28;20202;-53
2022/12/24 11:54:12;;;;;;;1224.57;162.53;;;10.00;99.90;;;;;;5050529;28;20234;-51
2022/12/24 11:56:45;;;;;;;994.17;208.27;;;10.10;99.90;;;;;;5043829;28;20288;-52
2022/12/24 11:59:19;;;;;;;1999.90;324.43;;;10.00;99.90;;;;;;5041175;28;20303;-52
2022/12/24 12:01:55;;;;;;;788.60;150.23;;;9.90;99.90;;;;;;5050734;28;20205;-52
2022/12/24 12:04:27;;;;;;;1002.40;156.80;;;10.00;99.90;;;;;;5050333;28;20225;-52
2022/12/24 12:07:00;;;;;;;989.07;205.70;;;10.10;99.90;;;;;;5047698;28;20206;-52
2022/12/24 12:09:31;;;;;;;1705.70;289.70;;;10.30;99.90;;;;;;5049964;28;20667;-52
2022/12/24 12:12:04;;;;;;;1469.33;239.00;;;10.20;99.90;;;;;;5050381;28;20206;-52
2022/12/24 12:14:39;;;;;;;1055.43;244.70;;;10.30;99.90;;;;;;5038587;28;20282;-53
2022/12/24 12:17:27;;;;;;;1999.90;351.87;;;10.40;99.90;;;;;;5046134;28;20247;-52
2022/12/24 12:20:00;;;;;;;671.97;107.70;;;10.40;99.90;;;;;;5038528;28;20737;-52
2022/12/24 12:22:35;;;;;;;1427.70;196.93;;;10.60;99.90;;;;;;5045444;28;20209;-53
2022/12/24 12:25:07;;;;;;;795.17;196.10;;;10.70;99.90;;;;;;5037295;28;20568;-51
2022/12/24 12:27:39;;;;;;;755.13;105.23;;;10.60;99.90;;;;;;5044443;28;20297;-52
2022/12/24 12:30:15;;;;;;;1765.87;558.93;;;10.50;99.90;;;;;;5038571;28;20308;-52
2022/12/24 12:32:51;;;;;;;858.50;179.70;;;10.60;99.90;;;;;;5048613;28;20229;-52
2022/12/24 12:35:25;;;;;;;961.80;259.73;;;10.50;99.90;;;;;;5045957;28;20206;-52
2022/12/24 12:38:00;;;;;;;1036.13;216.10;;;10.50;99.90;;;;;;5037629;28;20238;-52
2022/12/24 12:40:49;;;;;;;1332.83;255.27;;;10.60;99.90;;;;;;5049715;28;20225;-52